Time;durP1;ratioP1;P1;durP2;ratioP2;P2;SDS_P1;SDS_P2;PMS_P1;PMS_P2;Temp;Humidity;BMP_temperature;BMP_pressure;BME280_temperature;BME280_humidity;BME280_pressure;Samples;Min_cycle;Max_cycle;Signal;HPM_P1;HPM_P2
2022/02/13 00:01:09;;;;;;;21.67;13.65;;;8.20;90.80;;;;;;5012646;28;20464;-73
2022/02/13 00:03:36;;;;;;;;;;;8.10;90.30;;;;;;5013288;28;20038;-76
2022/02/13 00:06:03;;;;;;;24.20;14.35;;;7.90;90.70;;;;;;5013626;28;20016;-75
2022/02/13 00:08:31;;;;;;;28.48;17.15;;;8.00;91.80;;;;;;5012735;28;20026;-79
2022/02/13 00:11:11;;;;;;;40.72;23.35;;;8.10;93.80;;;;;;5013148;28;20041;-82
2022/02/13 00:13:39;;;;;;;43.95;24.00;;;8.10;96.80;;;;;;5011392;28;20046;-77
2022/02/13 00:16:06;;;;;;;40.15;24.88;;;8.00;99.90;;;;;;5012443;28;20360;-76
2022/02/13 00:18:33;;;;;;;36.42;23.20;;;8.00;99.90;;;;;;5011193;28;20050;-76
2022/02/13 00:21:00;;;;;;;36.22;22.23;;;7.80;99.90;;;;;;5012922;28;20045;-76
2022/02/13 00:23:27;;;;;;;28.80;19.48;;;7.80;99.90;;;;;;5012621;28;20440;-80
2022/02/13 00:25:55;;;;;;;26.02;16.88;;;7.70;99.90;;;;;;5012576;28;20046;-79
2022/02/13 00:28:22;;;;;;;30.20;17.40;;;7.90;99.40;;;;;;5012368;28;20387;-80
2022/02/13 00:30:49;;;;;;;29.33;18.30;;;7.90;99.10;;;;;;5012359;28;20042;-75
2022/02/13 00:33:16;;;;;;;33.38;19.65;;;7.80;99.40;;;;;;5012730;28;20046;-75
2022/02/13 00:35:46;;;;;;;30.70;20.40;;;7.80;99.70;;;;;;5012331;28;20049;-77
2022/02/13 00:38:14;;;;;;;38.72;24.10;;;7.70;99.50;;;;;;5012443;28;20052;-78
2022/02/13 00:40:41;;;;;;;39.90;24.88;;;7.40;99.90;;;;;;5013089;28;20442;-78
2022/02/13 00:43:09;;;;;;;34.92;23.00;;;7.20;99.90;;;;;;5012735;28;20038;-81
2022/02/13 00:45:36;;;;;;;37.55;23.45;;;7.50;99.90;;;;;;5012516;28;20058;-81
2022/02/13 00:48:03;;;;;;;38.00;22.23;;;7.60;99.90;;;;;;5011068;28;20042;-78
2022/02/13 00:50:31;;;;;;;39.08;21.20;;;7.80;99.90;;;;;;4994407;28;20034;-77
2022/02/13 00:52:58;;;;;;;38.08;21.88;;;7.60;99.90;;;;;;5012129;28;20038;-79
2022/02/13 00:55:25;;;;;;;41.53;23.02;;;7.70;99.90;;;;;;5012078;28;20120;-77
2022/02/13 00:57:52;;;;;;;37.33;22.40;;;7.80;99.90;;;;;;5011950;28;20038;-73
2022/02/13 01:00:21;;;;;;;35.78;22.17;;;7.80;99.90;;;;;;5012015;28;20375;-71
2022/02/13 01:02:49;;;;;;;35.88;21.65;;;7.40;99.90;;;;;;5011606;28;20037;-75
2022/02/13 01:05:17;;;;;;;35.67;21.35;;;7.70;99.90;;;;;;5010792;28;20379;-73
2022/02/13 01:07:45;;;;;;;31.80;20.48;;;7.80;99.90;;;;;;5011994;28;20037;-75
2022/02/13 01:10:12;;;;;;;30.67;19.48;;;7.80;99.90;;;;;;5011597;28;20042;-76
2022/02/13 01:12:39;;;;;;;34.38;20.15;;;7.80;99.90;;;;;;5011861;28;20079;-76
2022/02/13 01:15:07;;;;;;;32.78;19.75;;;7.80;99.90;;;;;;5011568;28;20034;-76
2022/02/13 01:17:34;;;;;;;28.58;19.30;;;7.80;99.90;;;;;;5011812;28;20061;-77
2022/02/13 01:20:03;;;;;;;35.92;21.33;;;7.60;99.90;;;;;;5011657;28;20033;-70
2022/02/13 01:22:33;;;;;;;32.55;20.05;;;7.70;99.90;;;;;;5011856;28;20454;-71
2022/02/13 01:25:02;;;;;;;34.13;20.00;;;7.70;99.90;;;;;;5011297;28;20442;-76
2022/02/13 01:27:29;;;;;;;28.38;19.63;;;7.70;99.90;;;;;;5012054;28;20037;-75
2022/02/13 01:29:57;;;;;;;30.10;19.77;;;7.60;99.90;;;;;;5010810;28;20053;-76
2022/02/13 01:32:24;;;;;;;28.85;19.17;;;7.50;99.90;;;;;;5011314;28;20042;-75
2022/02/13 01:34:51;;;;;;;30.67;19.65;;;7.50;99.90;;;;;;5011675;28;20042;-75
2022/02/13 01:37:18;;;;;;;31.60;20.35;;;7.50;99.90;;;;;;5010296;28;20037;-75
2022/02/13 01:39:47;;;;;;;32.58;20.65;;;7.40;99.90;;;;;;5011310;28;20050;-74
2022/02/13 01:42:15;;;;;;;30.95;18.55;;;7.50;99.90;;;;;;5011287;28;20053;-71
2022/02/13 01:44:42;;;;;;;31.00;18.17;;;7.50;99.90;;;;;;4993946;28;20048;-73
2022/02/13 01:47:10;;;;;;;28.17;19.05;;;7.40;99.90;;;;;;5011301;28;20029;-74
2022/02/13 01:49:37;;;;;;;30.70;18.88;;;7.40;99.90;;;;;;5011322;28;20044;-75
2022/02/13 01:52:05;;;;;;;33.17;19.85;;;7.40;99.90;;;;;;5011537;28;20041;-75
2022/02/13 01:54:32;;;;;;;27.63;18.13;;;7.40;99.90;;;;;;5010791;28;20042;-74
2022/02/13 01:57:01;;;;;;;29.15;19.17;;;7.40;99.90;;;;;;5011272;28;20068;-74
2022/02/13 01:59:28;;;;;;;29.73;18.95;;;7.30;99.90;;;;;;5011151;28;20042;-75
2022/02/13 02:01:55;;;;;;;29.88;18.30;;;7.30;99.90;;;;;;5010796;28;20068;-75
2022/02/13 02:04:23;;;;;;;31.02;19.10;;;7.40;99.90;;;;;;4993804;28;20372;-75
2022/02/13 02:06:51;;;;;;;30.25;17.90;;;7.30;99.90;;;;;;5011510;28;20395;-76
2022/02/13 02:09:18;;;;;;;29.25;18.73;;;7.20;99.90;;;;;;5011058;28;20038;-75
2022/02/13 02:11:45;;;;;;;31.42;18.90;;;7.20;99.90;;;;;;5011246;28;20450;-75
2022/02/13 02:14:12;;;;;;;26.95;18.40;;;7.20;99.90;;;;;;5011145;28;20038;-75
2022/02/13 02:16:40;;;;;;;30.73;19.42;;;7.20;99.90;;;;;;5010856;28;20030;-73
2022/02/13 02:19:09;;;;;;;32.95;18.13;;;7.20;99.90;;;;;;5010955;28;20034;-73
2022/02/13 02:21:47;;;;;;;30.10;19.17;;;7.30;99.90;;;;;;5010677;28;20057;-76
2022/02/13 02:24:16;;;;;;;29.90;18.63;;;7.30;99.90;;;;;;4993483;28;20050;-71
2022/02/13 02:26:44;;;;;;;25.35;16.58;;;7.30;99.90;;;;;;5011290;28;20057;-76
2022/02/13 02:29:12;;;;;;;26.48;18.55;;;7.20;99.90;;;;;;5010911;28;20045;-72
2022/02/13 02:31:39;;;;;;;24.13;16.23;;;7.10;99.90;;;;;;5010872;28;20057;-76
2022/02/13 02:34:06;;;;;;;27.27;16.77;;;7.00;99.90;;;;;;5010971;28;20046;-75
2022/02/13 02:36:34;;;;;;;25.40;17.10;;;7.00;99.90;;;;;;5010796;28;20037;-77
2022/02/13 02:39:02;;;;;;;25.15;16.20;;;7.00;99.90;;;;;;5009835;28;20056;-75
2022/02/13 02:41:30;;;;;;;24.70;15.13;;;7.00;99.90;;;;;;5010747;28;20033;-77
2022/02/13 02:44:01;;;;;;;28.05;16.02;;;7.00;99.90;;;;;;5014005;28;20042;-72
2022/02/13 02:46:28;;;;;;;23.13;15.13;;;7.00;99.90;;;;;;5014179;28;20041;-73
2022/02/13 02:48:56;;;;;;;23.67;15.63;;;7.10;99.90;;;;;;5014082;28;20382;-73
2022/02/13 02:51:23;;;;;;;24.60;15.07;;;7.10;99.90;;;;;;5014024;28;20036;-75
2022/02/13 02:53:53;;;;;;;23.90;14.60;;;7.10;99.90;;;;;;5014293;28;20052;-75
2022/02/13 02:56:20;;;;;;;24.50;14.23;;;7.00;99.90;;;;;;5013791;28;20045;-74
2022/02/13 02:58:47;;;;;;;24.75;15.35;;;7.10;99.90;;;;;;5014150;28;20430;-76
2022/02/13 03:01:14;;;;;;;19.95;14.18;;;7.20;99.90;;;;;;5014025;28;20080;-74
2022/02/13 03:03:42;;;;;;;24.75;14.73;;;7.10;99.90;;;;;;5014052;28;20046;-75
2022/02/13 03:06:09;;;;;;;24.40;14.65;;;6.90;99.90;;;;;;5013843;28;20040;-75
2022/02/13 03:08:36;;;;;;;21.05;14.63;;;7.00;99.90;;;;;;4997146;28;20789;-74
2022/02/13 03:11:03;;;;;;;24.00;14.48;;;7.00;99.90;;;;;;5013524;28;20030;-74
2022/02/13 03:13:30;;;;;;;28.83;15.32;;;7.00;99.90;;;;;;5013859;28;20376;-76
2022/02/13 03:15:59;;;;;;;20.85;14.18;;;7.00;99.90;;;;;;5013241;28;20113;-75
2022/02/13 03:18:29;;;;;;;20.42;14.48;;;7.00;99.90;;;;;;5012512;28;20046;-76
2022/02/13 03:20:58;;;;;;;22.83;14.50;;;7.10;99.90;;;;;;5000612;28;20029;-76
2022/02/13 03:23:26;;;;;;;22.45;14.35;;;7.20;99.90;;;;;;5015606;28;20504;-76
2022/02/13 03:25:54;;;;;;;24.10;14.85;;;7.10;99.90;;;;;;5033052;28;20037;-75
2022/02/13 03:28:21;;;;;;;22.40;14.63;;;7.10;99.90;;;;;;5015720;28;20044;-74
2022/02/13 03:30:48;;;;;;;22.25;13.60;;;7.00;99.90;;;;;;5033438;28;20043;-76
2022/02/13 03:33:15;;;;;;;23.33;14.75;;;7.20;99.90;;;;;;5033344;28;20052;-74
2022/02/13 03:35:43;;;;;;;21.77;14.35;;;7.20;99.90;;;;;;5032986;28;20044;-76
2022/02/13 03:38:10;;;;;;;19.88;14.20;;;7.10;99.90;;;;;;5033232;28;20055;-76
2022/02/13 03:40:38;;;;;;;24.10;14.70;;;7.10;99.90;;;;;;5033073;28;20025;-76
2022/02/13 03:43:06;;;;;;;20.90;13.90;;;7.10;99.90;;;;;;5033103;28;20041;-75
2022/02/13 03:45:34;;;;;;;22.92;14.60;;;7.10;99.90;;;;;;5032921;28;20478;-74
2022/02/13 03:48:01;;;;;;;19.88;14.43;;;7.20;99.90;;;;;;5033005;28;20386;-76
2022/02/13 03:50:29;;;;;;;24.20;14.73;;;7.10;99.90;;;;;;5033088;28;20044;-74
2022/02/13 03:52:58;;;;;;;23.63;15.23;;;7.10;99.90;;;;;;5032740;28;20372;-74
2022/02/13 03:55:26;;;;;;;22.55;14.73;;;7.10;99.90;;;;;;5032874;28;20040;-76
2022/02/13 03:57:53;;;;;;;22.67;14.40;;;7.00;99.90;;;;;;5032674;28;20037;-77
2022/02/13 04:00:21;;;;;;;21.00;15.18;;;7.00;99.90;;;;;;5032863;28;20107;-74
2022/02/13 04:02:48;;;;;;;24.52;14.90;;;6.90;99.90;;;;;;5032897;28;20040;-75
2022/02/13 04:05:16;;;;;;;27.38;15.15;;;7.10;99.90;;;;;;5032681;28;20049;-76
2022/02/13 04:07:43;;;;;;;21.67;14.02;;;7.10;99.90;;;;;;5032654;28;20041;-76
2022/02/13 04:10:12;;;;;;;21.42;15.45;;;7.20;99.90;;;;;;5032609;28;20041;-75
2022/02/13 04:12:41;;;;;;;22.80;14.57;;;7.20;99.90;;;;;;5032578;28;20112;-77
2022/02/13 04:15:11;;;;;;;20.80;14.82;;;7.10;99.90;;;;;;5032421;28;20048;-77
2022/02/13 04:17:38;;;;;;;22.98;14.88;;;7.20;99.90;;;;;;5032232;28;20038;-77
2022/02/13 04:20:06;;;;;;;21.63;14.27;;;7.10;99.90;;;;;;5032711;28;20052;-78
2022/02/13 04:22:34;;;;;;;21.70;14.70;;;7.20;99.90;;;;;;5016350;28;20057;-78
2022/02/13 04:25:01;;;;;;;19.02;14.35;;;7.20;99.90;;;;;;5012842;28;20379;-75
2022/02/13 04:27:28;;;;;;;22.25;15.02;;;7.30;99.90;;;;;;4995377;28;20588;-76
2022/02/13 04:29:56;;;;;;;24.70;15.05;;;7.20;99.90;;;;;;5012551;28;20045;-76
2022/02/13 04:32:23;;;;;;;23.33;14.98;;;7.20;99.90;;;;;;5012461;28;20038;-75
2022/02/13 04:34:50;;;;;;;29.10;16.20;;;7.30;99.90;;;;;;5012677;28;20053;-75
2022/02/13 04:37:17;;;;;;;21.92;14.98;;;7.20;99.90;;;;;;5012180;28;20034;-75
2022/02/13 04:39:45;;;;;;;25.92;16.65;;;7.10;99.90;;;;;;5011967;28;20046;-76
2022/02/13 04:42:12;;;;;;;22.92;14.88;;;7.00;99.90;;;;;;5012200;28;20052;-74
2022/02/13 04:44:41;;;;;;;22.80;16.25;;;7.00;99.90;;;;;;5012004;28;20057;-75
2022/02/13 04:47:09;;;;;;;26.17;16.08;;;7.00;99.90;;;;;;4994640;28;20045;-77
2022/02/13 04:49:36;;;;;;;25.38;15.80;;;7.10;99.90;;;;;;5012066;28;20394;-74
2022/02/13 04:52:04;;;;;;;22.55;14.80;;;7.20;99.90;;;;;;5011702;28;20396;-73
2022/02/13 04:54:31;;;;;;;26.67;13.98;;;7.10;99.90;;;;;;5011997;28;20046;-74
2022/02/13 04:57:01;;;;;;;25.25;15.27;;;7.10;99.90;;;;;;5011958;28;20372;-74
2022/02/13 04:59:33;;;;;;;23.88;14.98;;;7.10;99.90;;;;;;5011925;28;20037;-74
2022/02/13 05:02:01;;;;;;;26.73;15.40;;;7.10;99.90;;;;;;5011754;28;20069;-72
2022/02/13 05:04:30;;;;;;;22.67;14.70;;;6.90;99.90;;;;;;5011582;28;20125;-73
2022/02/13 05:06:58;;;;;;;26.58;16.63;;;7.00;99.90;;;;;;5011354;28;20109;-74
2022/02/13 05:09:25;;;;;;;23.90;16.13;;;6.80;99.90;;;;;;5011628;28;20049;-74
2022/02/13 05:11:53;;;;;;;25.20;16.15;;;6.80;99.90;;;;;;5011864;28;20048;-74
2022/02/13 05:14:20;;;;;;;29.60;17.88;;;7.00;99.90;;;;;;5011489;28;20057;-73
2022/02/13 05:16:47;;;;;;;27.77;17.75;;;7.00;99.90;;;;;;5011599;28;20034;-74
2022/02/13 05:19:14;;;;;;;27.25;16.27;;;7.10;99.90;;;;;;5011855;28;20041;-76
2022/02/13 05:21:42;;;;;;;25.50;18.52;;;7.10;99.90;;;;;;5018680;28;20045;-72
2022/02/13 05:24:10;;;;;;;25.00;17.00;;;6.90;99.90;;;;;;5031199;28;20397;-73
2022/02/13 05:26:37;;;;;;;23.63;16.58;;;7.00;99.90;;;;;;5031335;28;20039;-73
2022/02/13 05:29:04;;;;;;;31.30;18.40;;;7.10;99.90;;;;;;5031340;28;20045;-75
2022/02/13 05:31:32;;;;;;;26.98;17.52;;;7.00;99.90;;;;;;5031104;28;20040;-74
2022/02/13 05:34:00;;;;;;;28.75;18.77;;;7.00;99.90;;;;;;5013632;28;20043;-74
2022/02/13 05:36:28;;;;;;;33.70;18.90;;;6.80;99.90;;;;;;5031214;28;20034;-75
2022/02/13 05:38:55;;;;;;;29.92;18.25;;;6.90;99.90;;;;;;5031076;28;20056;-75
2022/02/13 05:41:23;;;;;;;38.65;20.02;;;6.90;99.90;;;;;;5030739;28;20051;-73
2022/02/13 05:43:50;;;;;;;33.25;19.30;;;6.90;99.90;;;;;;5013507;28;20049;-75
2022/02/13 05:46:19;;;;;;;33.75;19.17;;;6.90;99.90;;;;;;5030558;28;20053;-74
2022/02/13 05:48:46;;;;;;;31.15;18.92;;;6.90;99.90;;;;;;5031082;28;20053;-75
2022/02/13 05:51:14;;;;;;;28.17;17.85;;;7.00;99.90;;;;;;5031215;28;20038;-73
2022/02/13 05:53:44;;;;;;;29.65;18.25;;;7.00;99.90;;;;;;5030777;28;20045;-74
2022/02/13 05:56:11;;;;;;;23.67;16.02;;;7.00;99.90;;;;;;5030907;28;20490;-74
2022/02/13 05:58:44;;;;;;;24.63;16.27;;;6.90;99.90;;;;;;5030899;28;20108;-74
2022/02/13 06:01:14;;;;;;;24.70;16.08;;;6.80;99.90;;;;;;5030796;28;20034;-75
2022/02/13 06:03:42;;;;;;;25.30;16.13;;;6.80;99.90;;;;;;5030458;28;20052;-75
2022/02/13 06:06:10;;;;;;;28.17;16.92;;;6.90;99.90;;;;;;5031066;28;20366;-75
2022/02/13 06:08:38;;;;;;;23.25;15.65;;;6.80;99.90;;;;;;5030899;28;20047;-74
2022/02/13 06:11:06;;;;;;;24.45;15.48;;;6.80;99.90;;;;;;5013454;28;20037;-77
2022/02/13 06:13:34;;;;;;;23.33;14.98;;;6.70;99.90;;;;;;5030861;28;20041;-76
2022/02/13 06:16:01;;;;;;;24.88;15.23;;;6.90;99.90;;;;;;5031181;28;20026;-74
2022/02/13 06:18:29;;;;;;;26.30;15.65;;;6.90;99.90;;;;;;5017090;28;20049;-75
2022/02/13 06:20:56;;;;;;;21.17;16.00;;;6.80;99.90;;;;;;5034887;28;20063;-73
2022/02/13 06:23:24;;;;;;;27.15;16.73;;;6.70;99.90;;;;;;5014937;28;20050;-72
2022/02/13 06:25:53;;;;;;;24.92;15.57;;;6.70;99.90;;;;;;5014868;28;20395;-75
2022/02/13 06:28:21;;;;;;;24.52;15.88;;;6.60;99.90;;;;;;5015144;28;20413;-77
2022/02/13 06:30:48;;;;;;;25.30;16.63;;;6.80;99.90;;;;;;5014709;28;20049;-76
2022/02/13 06:33:20;;;;;;;23.48;15.90;;;6.80;99.90;;;;;;5021998;28;20444;-72
2022/02/13 06:35:47;;;;;;;35.40;15.65;;;6.90;99.90;;;;;;5034526;28;20044;-72
2022/02/13 06:38:15;;;;;;;22.30;15.15;;;6.90;99.90;;;;;;5034401;28;20033;-74
2022/02/13 06:40:42;;;;;;;23.27;15.05;;;7.00;99.90;;;;;;5034114;28;20391;-72
2022/02/13 06:43:10;;;;;;;24.73;16.23;;;6.90;99.90;;;;;;5033747;28;20052;-74
2022/02/13 06:45:37;;;;;;;26.13;16.25;;;7.00;99.90;;;;;;5033902;28;20068;-73
2022/02/13 06:48:05;;;;;;;26.38;16.80;;;6.80;99.90;;;;;;5033856;28;20030;-73
2022/02/13 06:50:32;;;;;;;23.77;16.30;;;6.80;99.90;;;;;;5033981;28;20053;-73
2022/02/13 06:53:02;;;;;;;22.88;15.50;;;6.70;99.90;;;;;;5034040;28;20038;-71
2022/02/13 06:55:29;;;;;;;21.83;14.90;;;6.40;99.90;;;;;;5033493;28;20394;-74
2022/02/13 06:57:56;;;;;;;26.50;15.98;;;6.50;99.90;;;;;;5033491;28;20048;-72
2022/02/13 07:00:24;;;;;;;23.77;15.40;;;6.60;99.90;;;;;;5033965;28;20395;-76
2022/02/13 07:02:51;;;;;;;21.67;15.25;;;6.40;99.90;;;;;;5016102;28;20033;-73
2022/02/13 07:05:23;;;;;;;22.73;15.10;;;6.60;99.90;;;;;;5033142;28;20064;-75
2022/02/13 07:07:51;;;;;;;26.20;15.80;;;6.70;99.90;;;;;;5033681;28;20382;-74
2022/02/13 07:10:19;;;;;;;28.85;17.00;;;6.70;99.90;;;;;;5033641;28;20382;-74
2022/02/13 07:12:46;;;;;;;29.60;16.30;;;6.70;99.90;;;;;;5033547;28;20387;-74
2022/02/13 07:15:14;;;;;;;21.88;15.68;;;6.80;99.90;;;;;;5033280;28;20113;-72
2022/02/13 07:17:44;;;;;;;23.45;16.13;;;6.70;99.90;;;;;;5033084;28;20037;-76
2022/02/13 07:20:12;;;;;;;27.05;17.23;;;6.80;99.90;;;;;;5033803;28;20116;-77
2022/02/13 07:22:39;;;;;;;43.05;26.23;;;6.90;99.90;;;;;;5033353;28;20041;-77
2022/02/13 07:25:08;;;;;;;197.65;99.63;;;6.80;99.90;;;;;;5032748;28;20056;-74
2022/02/13 07:27:39;;;;;;;42.33;26.35;;;6.80;99.90;;;;;;5022902;28;20051;-72
2022/02/13 07:30:13;;;;;;;32.50;21.02;;;6.90;99.90;;;;;;5024083;28;20037;-76
2022/02/13 07:32:44;;;;;;;27.83;19.33;;;7.20;99.90;;;;;;5025314;28;20062;-77
2022/02/13 07:35:14;;;;;;;41.75;27.77;;;7.10;99.90;;;;;;5023966;28;20371;-76
2022/02/13 07:37:42;;;;;;;108.35;59.20;;;7.40;99.90;;;;;;5021999;28;20030;-75
2022/02/13 07:40:11;;;;;;;52.58;35.42;;;7.70;99.90;;;;;;5024375;28;20053;-75
2022/02/13 07:42:45;;;;;;;96.45;56.78;;;7.80;99.90;;;;;;5017738;28;20356;-74
2022/02/13 07:45:13;;;;;;;39.28;25.85;;;7.90;99.90;;;;;;5019467;28;20038;-78
2022/02/13 07:47:41;;;;;;;25.20;18.20;;;7.60;99.90;;;;;;5022376;28;20111;-77
2022/02/13 07:50:09;;;;;;;24.08;16.10;;;7.70;99.90;;;;;;5023771;28;20041;-76
2022/02/13 07:52:37;;;;;;;25.00;15.73;;;7.50;99.90;;;;;;5021957;28;20041;-76
2022/02/13 07:55:05;;;;;;;23.95;15.52;;;7.20;99.90;;;;;;5021624;28;20049;-77
2022/02/13 07:57:32;;;;;;;20.80;15.40;;;7.10;99.90;;;;;;5023106;28;20387;-76
2022/02/13 08:00:00;;;;;;;22.92;16.02;;;7.20;99.90;;;;;;5021020;28;20387;-74
2022/02/13 08:02:27;;;;;;;25.13;15.98;;;7.40;99.90;;;;;;5020578;28;20033;-72
2022/02/13 08:04:54;;;;;;;24.05;15.55;;;7.50;99.90;;;;;;5000625;28;20040;-74
2022/02/13 08:07:21;;;;;;;20.58;15.10;;;7.40;99.90;;;;;;5003801;28;20543;-74
2022/02/13 08:09:49;;;;;;;21.20;14.35;;;7.40;99.90;;;;;;5021944;28;20344;-75
2022/02/13 08:12:16;;;;;;;22.05;15.13;;;7.40;99.90;;;;;;5020786;28;20048;-74
2022/02/13 08:14:46;;;;;;;20.70;13.80;;;7.50;99.90;;;;;;5020611;28;20672;-75
2022/02/13 08:17:14;;;;;;;19.92;14.82;;;7.40;99.90;;;;;;5017703;28;20034;-75
2022/02/13 08:19:41;;;;;;;25.60;15.55;;;7.40;99.90;;;;;;5021104;28;20045;-72
2022/02/13 08:22:08;;;;;;;24.20;15.02;;;7.50;99.90;;;;;;5028247;28;20036;-75
2022/02/13 08:24:35;;;;;;;23.20;15.35;;;7.40;99.90;;;;;;5032261;28;20379;-77
2022/02/13 08:27:03;;;;;;;22.23;15.30;;;7.40;99.90;;;;;;5028685;28;20493;-75
2022/02/13 08:29:30;;;;;;;22.80;16.33;;;7.40;99.90;;;;;;4992771;28;20111;-73
2022/02/13 08:31:57;;;;;;;25.27;16.80;;;7.30;99.90;;;;;;5005272;28;20030;-76
2022/02/13 08:34:25;;;;;;;21.23;14.50;;;7.20;99.90;;;;;;5006468;28;20379;-74
2022/02/13 08:36:52;;;;;;;18.40;11.82;;;7.20;99.90;;;;;;5010724;28;20387;-75
2022/02/13 08:39:19;;;;;;;24.05;14.38;;;7.40;99.90;;;;;;5011118;28;20409;-75
2022/02/13 08:41:47;;;;;;;23.58;16.02;;;7.50;99.90;;;;;;5009204;28;20046;-73
2022/02/13 08:44:15;;;;;;;28.02;17.45;;;7.60;99.90;;;;;;5010590;28;20042;-73
2022/02/13 08:46:42;;;;;;;24.98;16.33;;;7.60;99.90;;;;;;5011958;28;20044;-74
2022/02/13 08:49:13;;;;;;;20.95;15.82;;;7.60;99.90;;;;;;5011400;28;20038;-75
2022/02/13 08:51:48;;;;;;;21.02;14.63;;;7.60;99.90;;;;;;4993909;28;20034;-70
2022/02/13 08:54:23;;;;;;;20.67;14.20;;;7.50;99.90;;;;;;4992375;28;20509;-72
2022/02/13 08:56:51;;;;;;;20.70;13.65;;;7.80;99.90;;;;;;4978198;28;20168;-75
2022/02/13 08:59:19;;;;;;;19.45;13.60;;;7.70;99.90;;;;;;5008729;28;20058;-72
2022/02/13 09:01:48;;;;;;;21.75;14.77;;;7.50;99.90;;;;;;5011347;28;20036;-75
2022/02/13 09:04:16;;;;;;;23.73;16.88;;;7.70;99.90;;;;;;5009471;28;20444;-73
2022/02/13 09:06:43;;;;;;;51.63;30.00;;;7.90;99.90;;;;;;4994670;28;20378;-74
2022/02/13 09:09:13;;;;;;;37.47;21.60;;;8.00;99.90;;;;;;5020070;28;20368;-71
2022/02/13 09:11:42;;;;;;;26.42;15.75;;;8.10;99.90;;;;;;4991195;28;20042;-74
2022/02/13 09:14:10;;;;;;;16.83;12.05;;;8.10;99.90;;;;;;5009189;28;20048;-72
2022/02/13 09:16:37;;;;;;;20.25;11.68;;;8.20;99.90;;;;;;5009082;28;20435;-73
2022/02/13 09:19:08;;;;;;;16.00;11.40;;;8.10;99.90;;;;;;5010192;28;20038;-70
2022/02/13 09:21:35;;;;;;;;;;;8.00;99.90;;;;;;5023564;28;20114;-74
2022/02/13 09:24:03;;;;;;;13.38;10.35;;;8.10;99.90;;;;;;5026833;28;20359;-74
2022/02/13 09:26:31;;;;;;;15.02;10.27;;;8.30;99.90;;;;;;5001709;28;20084;-73
2022/02/13 09:29:00;;;;;;;14.55;10.25;;;8.40;99.90;;;;;;5016460;28;20025;-72
2022/02/13 09:31:28;;;;;;;17.90;11.65;;;8.50;99.90;;;;;;5020092;28;20209;-71
2022/02/13 09:33:55;;;;;;;17.30;11.35;;;8.70;99.90;;;;;;5019634;28;20060;-73
2022/02/13 09:36:23;;;;;;;17.20;11.77;;;8.70;99.90;;;;;;5021684;28;20462;-74
2022/02/13 09:38:50;;;;;;;19.20;12.10;;;8.90;99.90;;;;;;5019131;28;20040;-74
2022/02/13 09:41:18;;;;;;;17.13;12.30;;;8.70;99.90;;;;;;5015771;28;20046;-70
2022/02/13 09:43:46;;;;;;;17.13;11.85;;;8.70;99.90;;;;;;5018140;28;20034;-70
2022/02/13 09:46:15;;;;;;;20.85;12.68;;;8.60;99.90;;;;;;5020368;28;20060;-73
2022/02/13 09:48:43;;;;;;;17.73;11.90;;;8.80;99.90;;;;;;5019233;28;20042;-71
2022/02/13 09:51:11;;;;;;;15.35;12.23;;;8.80;99.90;;;;;;5022282;28;20486;-71
2022/02/13 09:53:38;;;;;;;17.58;11.68;;;9.00;99.90;;;;;;5031631;28;20421;-72
2022/02/13 09:56:07;;;;;;;28.30;16.00;;;9.20;99.90;;;;;;5014419;28;20140;-69
2022/02/13 09:58:34;;;;;;;20.00;13.57;;;9.30;99.90;;;;;;5013644;28;20053;-72
2022/02/13 10:01:04;;;;;;;21.17;14.25;;;9.30;99.90;;;;;;5014433;28;20042;-73
2022/02/13 10:03:33;;;;;;;20.10;12.30;;;9.80;99.90;;;;;;5013533;28;20041;-74
2022/02/13 10:06:12;;;;;;;75.03;43.50;;;10.10;99.90;;;;;;5013151;28;20030;-72
2022/02/13 10:08:50;;;;;;;132.15;68.13;;;10.30;99.90;;;;;;5014510;28;20532;-70
2022/02/13 10:11:21;;;;;;;32.47;21.23;;;10.60;99.90;;;;;;5014499;28;20360;-73
2022/02/13 10:13:56;;;;;;;19.85;14.23;;;10.90;99.90;;;;;;5014130;28;20041;-77
2022/02/13 10:16:26;;;;;;;19.05;12.73;;;10.90;99.90;;;;;;4994946;28;20052;-77
2022/02/13 10:18:54;;;;;;;19.47;12.10;;;10.10;99.90;;;;;;5013686;28;20558;-76
2022/02/13 10:21:30;;;;;;;16.90;11.57;;;10.30;99.90;;;;;;5014293;28;20045;-76
2022/02/13 10:24:27;;;;;;;18.35;11.32;;;10.50;99.90;;;;;;5011370;28;20042;-76
2022/02/13 10:26:57;;;;;;;15.90;10.38;;;10.60;99.90;;;;;;5013136;28;20050;-76
2022/02/13 10:29:30;;;;;;;12.90;9.20;;;11.00;99.90;;;;;;4992273;28;20060;-75
2022/02/13 10:32:15;;;;;;;14.60;9.63;;;11.20;99.90;;;;;;4976512;28;20049;-76
2022/02/13 10:35:03;;;;;;;14.48;9.43;;;10.60;99.90;;;;;;4994394;28;20034;-75
2022/02/13 10:37:45;;;;;;;12.48;9.55;;;10.90;99.70;;;;;;4994812;28;20034;-75
2022/02/13 10:40:17;;;;;;;13.48;10.15;;;11.10;98.30;;;;;;4991566;28;20034;-76
2022/02/13 10:42:46;;;;;;;23.40;10.65;;;11.10;98.50;;;;;;4993824;28;20038;-77
2022/02/13 10:45:19;;;;;;;76.72;44.33;;;11.60;98.20;;;;;;5012860;28;20053;-75
2022/02/13 10:47:48;;;;;;;52.47;34.22;;;12.20;98.30;;;;;;5013954;28;20048;-79
2022/02/13 10:50:17;;;;;;;18.65;12.77;;;12.30;98.30;;;;;;5013064;28;20411;-76
2022/02/13 10:52:50;;;;;;;16.20;11.57;;;12.70;95.80;;;;;;5011572;28;20045;-77
2022/02/13 10:55:18;;;;;;;15.27;10.48;;;12.70;94.50;;;;;;5013406;28;20034;-77
2022/02/13 10:57:46;;;;;;;14.38;10.70;;;12.70;94.10;;;;;;5006506;28;20321;-75
2022/02/13 11:00:16;;;;;;;15.90;10.93;;;12.40;94.80;;;;;;4993547;28;20044;-76
2022/02/13 11:02:48;;;;;;;18.20;11.80;;;11.70;96.60;;;;;;4992470;28;20046;-78
2022/02/13 11:05:19;;;;;;;15.13;11.13;;;11.40;96.80;;;;;;4991712;28;20412;-74
2022/02/13 11:07:47;;;;;;;;;;;11.40;98.10;;;;;;4994397;28;20040;-74
2022/02/13 11:10:39;;;;;;;14.02;10.25;;;11.40;97.90;;;;;;4993407;28;19918;-77
2022/02/13 11:13:08;;;;;;;14.27;10.55;;;11.60;97.30;;;;;;4992071;28;20388;-75
2022/02/13 11:15:38;;;;;;;15.25;10.50;;;11.70;97.90;;;;;;4993744;28;20038;-77
2022/02/13 11:18:07;;;;;;;15.03;10.37;;;11.60;97.90;;;;;;4994270;28;20046;-74
2022/02/13 11:20:36;;;;;;;16.02;10.43;;;11.50;97.00;;;;;;4993711;28;20614;-73
2022/02/13 11:23:21;;;;;;;19.90;11.68;;;11.20;98.20;;;;;;5006642;28;20050;-74
2022/02/13 11:26:06;;;;;;;14.48;10.65;;;11.30;99.00;;;;;;5013339;28;20046;-76
2022/02/13 11:28:42;;;;;;;16.48;11.68;;;11.30;98.50;;;;;;5013546;28;20038;-75
2022/02/13 11:31:39;;;;;;;20.95;14.00;;;11.40;98.30;;;;;;5013232;28;20092;-77
2022/02/13 11:34:13;;;;;;;16.30;12.00;;;11.60;98.30;;;;;;5013555;28;20477;-78
2022/02/13 11:36:49;;;;;;;15.30;10.93;;;11.60;97.40;;;;;;5017840;28;20054;-75
2022/02/13 11:39:48;;;;;;;61.53;37.00;;;11.70;99.90;;;;;;5024566;28;20030;-74
2022/02/13 11:42:21;;;;;;;43.88;28.52;;;12.40;99.90;;;;;;5015888;28;20052;-79
2022/02/13 11:44:52;;;;;;;18.75;14.07;;;12.70;98.90;;;;;;5019487;28;20030;-81
2022/02/13 11:47:40;;;;;;;13.65;10.10;;;12.60;95.30;;;;;;5026114;28;20041;-79
2022/02/13 11:50:09;;;;;;;15.48;10.15;;;12.30;95.10;;;;;;5021054;28;20034;-77
2022/02/13 11:52:51;;;;;;;13.25;9.52;;;11.80;95.90;;;;;;5018130;28;20534;-81
2022/02/13 11:55:20;;;;;;;14.18;9.82;;;11.40;96.90;;;;;;5016405;28;20046;-81
2022/02/13 11:58:11;;;;;;;14.27;9.93;;;11.20;97.40;;;;;;5000268;28;20046;-79
2022/02/13 12:00:54;;;;;;;22.40;14.80;;;11.10;97.60;;;;;;5017826;28;20038;-75
2022/02/13 12:03:25;;;;;;;27.58;17.90;;;11.20;99.90;;;;;;5012211;28;20046;-78
2022/02/13 12:06:07;;;;;;;16.40;13.45;;;11.60;99.90;;;;;;5025671;28;20037;-80
2022/02/13 12:08:34;;;;;;;15.73;10.77;;;11.20;98.20;;;;;;5020439;28;20041;-77
2022/02/13 12:11:06;;;;;;;14.27;9.85;;;10.90;98.80;;;;;;5031575;28;20360;-77
2022/02/13 12:13:38;;;;;;;17.17;10.82;;;10.60;98.90;;;;;;5031798;28;20037;-77
2022/02/13 12:16:07;;;;;;;12.93;9.77;;;10.70;99.40;;;;;;5031385;28;20038;-77
2022/02/13 12:18:35;;;;;;;13.38;10.00;;;10.40;99.60;;;;;;5023902;28;20061;-79
2022/02/13 12:21:07;;;;;;;15.57;10.93;;;10.40;99.90;;;;;;5020621;28;20037;-78
2022/02/13 12:23:35;;;;;;;19.63;11.45;;;10.40;99.90;;;;;;5019564;28;20657;-77
2022/02/13 12:26:04;;;;;;;15.27;10.90;;;10.80;99.90;;;;;;5019366;28;20034;-77
2022/02/13 12:28:38;;;;;;;16.65;10.98;;;10.80;99.90;;;;;;5012072;28;20112;-74
2022/02/13 12:31:06;;;;;;;58.50;31.55;;;10.90;99.80;;;;;;5012073;28;20054;-77
2022/02/13 12:33:43;;;;;;;37.30;23.92;;;11.10;99.90;;;;;;5011910;28;20133;-76
2022/02/13 12:36:11;;;;;;;81.90;44.55;;;11.70;99.90;;;;;;5011622;28;20527;-74
2022/02/13 12:38:38;;;;;;;46.70;26.80;;;12.00;99.80;;;;;;5011324;28;20100;-78
2022/02/13 12:41:05;;;;;;;21.48;13.35;;;11.50;99.10;;;;;;5012055;28;20046;-76
2022/02/13 12:43:33;;;;;;;17.33;11.02;;;11.20;98.50;;;;;;5011649;28;20041;-75
2022/02/13 12:46:00;;;;;;;16.92;10.38;;;11.20;98.90;;;;;;5011602;28;20066;-74